Time;durP1;ratioP1;P1;durP2;ratioP2;P2;SDS_P1;SDS_P2;PMS_P1;PMS_P2;Temp;Humidity;BMP_temperature;BMP_pressure;BME280_temperature;BME280_humidity;BME280_pressure;Samples;Min_cycle;Max_cycle;Signal;HPM_P1;HPM_P2
2023/08/13 00:00:07;;;;;;;7.17;2.03;;;16.70;99.90;;;;;;4992860;28;20178;-69
2023/08/13 00:02:35;;;;;;;4.00;2.00;;;16.70;99.90;;;;;;4993176;28;20215;-68
2023/08/13 00:05:04;;;;;;;4.63;1.70;;;16.80;99.90;;;;;;4993495;28;20217;-69
2023/08/13 00:07:32;;;;;;;4.67;1.80;;;16.80;99.90;;;;;;4993510;28;20194;-70
2023/08/13 00:10:00;;;;;;;5.93;1.53;;;16.70;99.90;;;;;;4992683;28;20201;-70
2023/08/13 00:12:27;;;;;;;3.43;1.50;;;16.70;99.90;;;;;;4993374;28;20193;-69
2023/08/13 00:14:55;;;;;;;5.60;1.53;;;16.70;99.90;;;;;;4993304;28;20182;-70
2023/08/13 00:17:23;;;;;;;5.77;1.57;;;16.70;99.90;;;;;;4993046;28;20206;-70
2023/08/13 00:19:51;;;;;;;4.93;1.23;;;16.80;99.90;;;;;;4993098;28;20182;-69
2023/08/13 00:22:19;;;;;;;6.20;1.53;;;16.80;99.90;;;;;;4973499;28;20251;-70
2023/08/13 00:24:47;;;;;;;5.23;1.90;;;17.10;99.90;;;;;;4984783;28;20186;-69
2023/08/13 00:27:14;;;;;;;5.70;1.67;;;17.40;99.90;;;;;;4993160;28;20547;-70
2023/08/13 00:29:43;;;;;;;4.27;1.93;;;17.70;99.90;;;;;;4993122;28;20178;-70
2023/08/13 00:32:11;;;;;;;3.07;1.37;;;18.10;99.90;;;;;;4992125;28;20202;-72
2023/08/13 00:34:39;;;;;;;5.73;1.40;;;18.40;99.90;;;;;;4993026;28;20224;-70
2023/08/13 00:37:07;;;;;;;3.07;1.17;;;18.60;99.90;;;;;;4998128;28;20193;-71
2023/08/13 00:39:34;;;;;;;4.57;1.30;;;18.70;99.90;;;;;;4997151;28;20194;-69
2023/08/13 00:42:02;;;;;;;3.87;1.10;;;18.90;99.90;;;;;;4994952;28;20213;-70
2023/08/13 00:44:30;;;;;;;2.17;0.93;;;19.30;99.90;;;;;;4993026;28;20174;-69
2023/08/13 00:46:58;;;;;;;3.77;1.07;;;19.80;99.90;;;;;;4992233;28;20269;-70
2023/08/13 00:49:26;;;;;;;2.50;1.10;;;20.40;99.90;;;;;;4992499;28;20182;-71
2023/08/13 00:51:54;;;;;;;5.37;1.43;;;21.50;99.90;;;;;;4992182;28;20198;-70
2023/08/13 00:54:22;;;;;;;2.17;1.20;;;21.30;99.90;;;;;;4991655;28;20183;-70
2023/08/13 00:56:52;;;;;;;2.63;1.20;;;21.10;99.90;;;;;;4992587;28;20178;-69
2023/08/13 00:59:21;;;;;;;3.63;1.30;;;20.70;99.90;;;;;;4992251;28;20670;-70
2023/08/13 01:01:49;;;;;;;2.13;1.10;;;20.20;99.90;;;;;;4992206;28;20209;-70
2023/08/13 01:04:17;;;;;;;4.80;1.70;;;20.10;99.90;;;;;;4992395;28;20197;-70
2023/08/13 01:06:59;;;;;;;4.50;1.00;;;20.20;99.90;;;;;;4997839;28;20212;-70
2023/08/13 01:09:37;;;;;;;4.03;1.23;;;20.60;99.90;;;;;;4992303;28;20542;-70
2023/08/13 01:12:19;;;;;;;3.97;1.10;;;21.00;99.90;;;;;;4992381;28;20640;-71
2023/08/13 01:14:59;;;;;;;2.83;0.80;;;21.20;99.90;;;;;;4992140;28;20183;-70
2023/08/13 01:17:28;;;;;;;4.20;1.33;;;21.40;99.90;;;;;;4992394;28;20268;-70
2023/08/13 01:19:59;;;;;;;2.50;0.80;;;21.60;99.90;;;;;;4973663;28;20225;-70
2023/08/13 01:22:30;;;;;;;2.00;1.50;;;22.40;99.90;;;;;;4969771;28;20260;-69
2023/08/13 01:24:58;;;;;;;2.80;1.30;;;22.70;99.90;;;;;;4990463;28;20186;-71
2023/08/13 01:27:55;;;;;;;3.17;1.20;;;22.30;99.90;;;;;;4991643;28;20198;-70
2023/08/13 01:30:41;;;;;;;1.63;0.87;;;21.60;99.90;;;;;;4957512;28;20198;-71
2023/08/13 01:33:12;;;;;;;2.10;0.90;;;21.70;99.90;;;;;;4991798;28;20931;-71
2023/08/13 01:35:42;;;;;;;2.70;1.00;;;21.40;99.90;;;;;;4992093;28;20190;-69
2023/08/13 01:38:10;;;;;;;2.43;1.00;;;20.70;99.90;;;;;;4991812;28;20233;-70
2023/08/13 01:40:38;;;;;;;2.43;0.90;;;20.40;99.90;;;;;;4992264;28;20193;-69
2023/08/13 01:43:06;;;;;;;3.80;1.60;;;20.20;99.90;;;;;;4993085;28;20218;-68
2023/08/13 01:45:34;;;;;;;3.63;1.00;;;19.90;99.90;;;;;;4995036;28;20221;-69
2023/08/13 01:48:02;;;;;;;5.50;1.27;;;19.70;99.90;;;;;;4996157;28;20269;-69
2023/08/13 01:50:30;;;;;;;2.57;0.90;;;19.70;99.90;;;;;;4995949;28;20201;-70
2023/08/13 01:52:57;;;;;;;4.50;1.23;;;19.50;99.90;;;;;;4978412;28;20267;-70
2023/08/13 01:55:25;;;;;;;3.80;1.33;;;19.30;99.90;;;;;;4978228;28;20317;-69
2023/08/13 01:57:53;;;;;;;5.40;1.53;;;19.00;99.90;;;;;;4995540;28;20190;-69
2023/08/13 02:00:21;;;;;;;4.23;1.10;;;18.90;99.90;;;;;;4995312;28;20265;-69
2023/08/13 02:02:49;;;;;;;2.07;0.90;;;18.70;99.90;;;;;;4995770;28;20248;-72
2023/08/13 02:05:17;;;;;;;3.50;1.00;;;18.70;99.90;;;;;;4995475;28;20186;-71
2023/08/13 02:07:45;;;;;;;2.43;1.00;;;18.80;99.90;;;;;;4995225;28;20205;-69
2023/08/13 02:10:12;;;;;;;2.90;0.90;;;18.80;99.90;;;;;;4995646;28;20180;-68
2023/08/13 02:12:40;;;;;;;3.77;1.00;;;19.00;99.90;;;;;;4995687;28;20195;-70
2023/08/13 02:15:08;;;;;;;1.90;0.80;;;19.10;99.90;;;;;;4994867;28;20541;-72
2023/08/13 02:17:36;;;;;;;2.30;0.90;;;19.40;99.90;;;;;;4994957;28;20201;-70
2023/08/13 02:20:05;;;;;;;4.37;0.90;;;19.40;99.90;;;;;;4995129;28;20185;-71
2023/08/13 02:22:33;;;;;;;2.83;0.90;;;19.30;99.90;;;;;;4994586;28;20701;-71
2023/08/13 02:25:01;;;;;;;1.80;0.80;;;19.40;99.90;;;;;;4995135;28;20214;-71
2023/08/13 02:27:29;;;;;;;1.50;0.97;;;19.50;99.90;;;;;;4995435;28;20179;-71
2023/08/13 02:29:57;;;;;;;1.87;0.83;;;19.50;99.90;;;;;;4994876;28;20615;-70
2023/08/13 02:32:25;;;;;;;1.30;0.67;;;19.50;99.90;;;;;;4995270;28;20188;-70
2023/08/13 02:34:52;;;;;;;2.47;0.90;;;19.30;99.90;;;;;;4994864;28;20189;-69
2023/08/13 02:37:20;;;;;;;2.37;0.90;;;19.30;99.90;;;;;;4994842;28;20214;-72
2023/08/13 02:39:48;;;;;;;1.17;0.60;;;19.40;99.90;;;;;;4994683;28;20179;-68
2023/08/13 02:42:16;;;;;;;0.97;0.60;;;19.50;99.90;;;;;;4994642;28;20223;-70
2023/08/13 02:44:43;;;;;;;1.87;0.80;;;19.50;99.90;;;;;;4994447;28;20210;-72
2023/08/13 02:47:11;;;;;;;1.73;0.80;;;19.40;99.90;;;;;;4977515;28;20662;-71
2023/08/13 02:49:39;;;;;;;1.07;0.80;;;19.40;99.90;;;;;;4995022;28;20182;-71
2023/08/13 02:52:07;;;;;;;2.60;1.00;;;19.40;99.90;;;;;;4994308;28;20193;-73
2023/08/13 02:54:34;;;;;;;1.37;0.70;;;19.20;99.90;;;;;;4994806;28;20182;-71
2023/08/13 02:57:02;;;;;;;1.57;0.70;;;19.00;99.90;;;;;;4993407;28;20194;-69
2023/08/13 02:59:30;;;;;;;2.10;1.00;;;19.00;99.90;;;;;;4994004;28;20185;-69
2023/08/13 03:01:58;;;;;;;1.90;0.77;;;19.00;99.90;;;;;;4994404;28;20226;-69
2023/08/13 03:04:25;;;;;;;3.63;0.90;;;19.00;99.90;;;;;;4994657;28;20209;-69
2023/08/13 03:06:53;;;;;;;2.17;1.00;;;19.10;99.90;;;;;;4994119;28;20194;-70
2023/08/13 03:09:23;;;;;;;1.43;0.80;;;19.20;99.90;;;;;;4994608;28;20175;-68
2023/08/13 03:11:50;;;;;;;1.70;0.80;;;19.50;99.90;;;;;;4994018;28;20183;-70
2023/08/13 03:14:18;;;;;;;2.00;0.87;;;19.80;99.90;;;;;;4994105;28;20178;-68
2023/08/13 03:16:46;;;;;;;2.10;0.90;;;20.00;99.90;;;;;;4994398;28;20274;-69
2023/08/13 03:19:14;;;;;;;2.20;1.03;;;20.30;99.90;;;;;;4992935;28;20656;-68
2023/08/13 03:21:42;;;;;;;3.13;0.90;;;20.30;99.90;;;;;;4993252;28;20289;-68
2023/08/13 03:24:09;;;;;;;3.37;0.80;;;20.30;99.90;;;;;;4994300;28;20241;-69
2023/08/13 03:26:37;;;;;;;4.07;0.80;;;20.10;99.90;;;;;;4994386;28;20633;-69
2023/08/13 03:29:05;;;;;;;1.43;0.73;;;20.00;99.90;;;;;;4993627;28;20293;-70
2023/08/13 03:31:33;;;;;;;2.87;1.07;;;19.80;99.90;;;;;;4993785;28;20191;-70
2023/08/13 03:34:01;;;;;;;3.17;0.90;;;19.60;99.90;;;;;;4993854;28;20185;-68
2023/08/13 03:36:28;;;;;;;1.63;0.87;;;19.40;99.90;;;;;;4993889;28;20174;-70
2023/08/13 03:38:56;;;;;;;3.67;0.93;;;19.20;99.90;;;;;;4993971;28;20188;-68
2023/08/13 03:41:24;;;;;;;3.93;1.20;;;19.10;99.90;;;;;;4993358;28;20329;-70
2023/08/13 03:43:52;;;;;;;2.83;1.27;;;19.00;99.90;;;;;;4975987;28;20190;-71
2023/08/13 03:46:19;;;;;;;1.67;0.90;;;18.90;99.90;;;;;;4993770;28;20682;-69
2023/08/13 03:48:47;;;;;;;1.43;0.90;;;18.80;99.90;;;;;;4993986;28;20178;-69
2023/08/13 03:51:15;;;;;;;2.00;0.90;;;18.70;99.90;;;;;;4992864;28;20189;-69
2023/08/13 03:53:43;;;;;;;2.10;0.80;;;18.70;99.90;;;;;;4992114;28;20273;-70
2023/08/13 03:56:10;;;;;;;1.27;0.63;;;18.60;99.90;;;;;;4992880;28;20656;-68
2023/08/13 03:58:38;;;;;;;2.07;0.90;;;18.70;99.90;;;;;;4992264;28;20186;-68
2023/08/13 04:01:07;;;;;;;2.23;0.60;;;18.70;99.90;;;;;;4993464;28;20306;-67
2023/08/13 04:03:36;;;;;;;3.13;0.90;;;18.70;99.90;;;;;;4998530;28;20242;-68
2023/08/13 04:06:03;;;;;;;4.47;0.90;;;18.60;99.90;;;;;;5003814;28;20182;-68
2023/08/13 04:08:34;;;;;;;4.53;1.33;;;18.40;99.90;;;;;;4975621;28;20179;-68
2023/08/13 04:11:02;;;;;;;2.60;0.83;;;18.20;99.90;;;;;;4993300;28;20636;-68
2023/08/13 04:13:30;;;;;;;2.20;0.70;;;18.00;99.90;;;;;;4992976;28;20187;-69
2023/08/13 04:15:57;;;;;;;2.50;1.10;;;17.90;99.90;;;;;;4993105;28;20237;-69
2023/08/13 04:18:25;;;;;;;2.53;1.00;;;17.80;99.90;;;;;;4975392;28;20184;-68
2023/08/13 04:20:53;;;;;;;3.83;1.37;;;17.60;99.90;;;;;;4992342;28;20190;-69
2023/08/13 04:23:21;;;;;;;7.47;1.53;;;17.70;99.90;;;;;;4993325;28;20276;-69
2023/08/13 04:25:48;;;;;;;1.63;0.80;;;17.60;99.90;;;;;;4992694;28;20199;-69
2023/08/13 04:28:16;;;;;;;3.53;0.80;;;17.50;99.90;;;;;;4992462;28;20179;-69
2023/08/13 04:30:44;;;;;;;2.83;1.20;;;17.40;99.90;;;;;;4993253;28;20206;-71
2023/08/13 04:33:12;;;;;;;2.07;0.77;;;17.30;99.90;;;;;;4993018;28;20179;-69
2023/08/13 04:35:40;;;;;;;3.53;1.10;;;17.20;99.90;;;;;;4992455;28;20179;-68
2023/08/13 04:38:07;;;;;;;3.43;1.10;;;17.20;99.90;;;;;;4993145;28;20181;-69
2023/08/13 04:40:35;;;;;;;1.77;0.73;;;17.10;99.90;;;;;;4992097;28;20200;-70
2023/08/13 04:43:03;;;;;;;4.20;1.00;;;17.10;99.90;;;;;;4992231;28;20285;-69
2023/08/13 04:45:31;;;;;;;1.63;0.60;;;17.10;99.90;;;;;;4992903;28;20178;-69
2023/08/13 04:47:58;;;;;;;2.90;1.10;;;17.00;99.90;;;;;;4993187;28;20186;-70
2023/08/13 04:50:26;;;;;;;3.37;1.03;;;17.00;99.90;;;;;;4993903;28;20542;-68
2023/08/13 04:52:54;;;;;;;3.47;1.13;;;17.10;99.90;;;;;;4994016;28;20652;-69
2023/08/13 04:55:22;;;;;;;6.70;1.27;;;17.10;99.90;;;;;;4993541;28;20183;-68
2023/08/13 04:57:50;;;;;;;3.00;1.00;;;17.10;99.90;;;;;;4993683;28;20209;-67
2023/08/13 05:00:18;;;;;;;4.97;1.23;;;17.00;99.90;;;;;;4993864;28;20654;-69
2023/08/13 05:02:46;;;;;;;4.63;1.10;;;16.90;99.90;;;;;;4993802;28;20210;-68
2023/08/13 05:05:13;;;;;;;1.53;0.90;;;16.90;99.90;;;;;;4993937;28;20225;-69
2023/08/13 05:07:41;;;;;;;6.10;1.27;;;16.90;99.90;;;;;;4994874;28;20182;-67
2023/08/13 05:10:09;;;;;;;3.57;1.17;;;17.10;99.90;;;;;;4979485;28;20221;-70
2023/08/13 05:12:37;;;;;;;3.70;1.13;;;17.10;99.90;;;;;;4994186;28;20190;-70
2023/08/13 05:15:05;;;;;;;3.80;1.17;;;17.00;99.90;;;;;;4994252;28;20221;-68
2023/08/13 05:17:35;;;;;;;3.40;1.20;;;16.90;99.90;;;;;;4993304;28;20194;-69
2023/08/13 05:20:03;;;;;;;8.23;1.67;;;16.80;99.90;;;;;;4997864;28;20179;-69
2023/08/13 05:22:31;;;;;;;4.50;1.10;;;16.60;99.90;;;;;;4997691;28;20319;-68
2023/08/13 05:24:59;;;;;;;10.43;1.60;;;16.50;99.90;;;;;;4997794;28;20182;-69
2023/08/13 05:27:26;;;;;;;4.70;1.23;;;16.40;99.90;;;;;;4997397;28;20182;-69
2023/08/13 05:29:54;;;;;;;4.33;1.23;;;16.30;99.90;;;;;;4993150;28;20228;-69
2023/08/13 05:32:22;;;;;;;6.47;1.33;;;16.20;99.90;;;;;;4997403;28;20206;-69
2023/08/13 05:34:50;;;;;;;6.17;1.33;;;16.30;99.90;;;;;;4997477;28;20302;-68
2023/08/13 05:37:18;;;;;;;3.00;1.50;;;16.20;99.90;;;;;;4997495;28;20547;-69
2023/08/13 05:39:45;;;;;;;3.63;1.07;;;16.20;99.90;;;;;;4997358;28;20182;-68
2023/08/13 05:42:13;;;;;;;6.83;1.57;;;16.10;99.90;;;;;;4997227;28;20217;-71
2023/08/13 05:44:41;;;;;;;3.20;1.27;;;15.90;99.90;;;;;;4997266;28;20182;-67
2023/08/13 05:47:09;;;;;;;4.77;1.33;;;15.80;99.90;;;;;;4997212;28;20272;-68
2023/08/13 05:49:37;;;;;;;9.20;1.77;;;15.80;99.90;;;;;;4997393;28;20264;-68
2023/08/13 05:52:05;;;;;;;3.90;1.20;;;15.90;99.90;;;;;;4997314;28;20224;-68
2023/08/13 05:54:32;;;;;;;3.20;1.77;;;15.90;99.90;;;;;;4997056;28;20179;-69
2023/08/13 05:57:00;;;;;;;4.63;1.50;;;15.90;99.90;;;;;;4997021;28;20588;-69
2023/08/13 05:59:28;;;;;;;10.27;2.03;;;16.00;99.90;;;;;;4997065;28;20636;-69
2023/08/13 06:01:56;;;;;;;5.77;1.47;;;16.00;99.90;;;;;;5005145;28;20249;-69
2023/08/13 06:04:23;;;;;;;2.77;1.40;;;15.90;99.90;;;;;;4998936;28;20714;-69
2023/08/13 06:06:51;;;;;;;5.07;1.63;;;15.90;99.90;;;;;;5011973;28;20281;-70
2023/08/13 06:09:19;;;;;;;6.53;1.50;;;15.90;99.90;;;;;;5010507;28;20182;-70
2023/08/13 06:11:47;;;;;;;7.40;1.80;;;15.80;99.90;;;;;;5011079;28;20182;-71
2023/08/13 06:14:15;;;;;;;3.90;1.80;;;15.70;99.90;;;;;;5015778;28;20181;-69
2023/08/13 06:16:42;;;;;;;6.60;1.97;;;15.70;99.90;;;;;;4996865;28;20183;-69
2023/08/13 06:19:10;;;;;;;5.27;2.10;;;15.60;99.90;;;;;;4996754;28;20586;-70
2023/08/13 06:21:38;;;;;;;9.97;1.90;;;15.50;99.90;;;;;;4999448;28;20221;-68
2023/08/13 06:24:06;;;;;;;3.37;1.50;;;15.50;99.90;;;;;;5013253;28;20656;-70
2023/08/13 06:26:34;;;;;;;5.60;1.70;;;15.50;99.90;;;;;;5006395;28;20261;-69
2023/08/13 06:29:02;;;;;;;6.00;2.13;;;15.40;99.90;;;;;;5005727;28;20197;-68
2023/08/13 06:31:30;;;;;;;6.90;1.87;;;15.30;99.90;;;;;;5004533;28;20182;-70
2023/08/13 06:33:58;;;;;;;6.10;1.50;;;15.20;99.90;;;;;;5001603;28;20225;-69
2023/08/13 06:36:26;;;;;;;3.77;1.60;;;15.20;99.90;;;;;;4986497;28;20186;-69
2023/08/13 06:38:54;;;;;;;6.07;2.33;;;15.20;99.90;;;;;;4996379;28;20261;-69
2023/08/13 06:41:21;;;;;;;3.90;1.50;;;15.10;99.90;;;;;;4995258;28;20181;-68
2023/08/13 06:43:49;;;;;;;7.73;1.83;;;15.10;99.90;;;;;;4995896;28;20209;-69
2023/08/13 06:46:17;;;;;;;4.53;1.70;;;15.10;99.90;;;;;;4995660;28;20243;-66
2023/08/13 06:48:44;;;;;;;6.93;2.07;;;15.10;99.90;;;;;;4995632;28;20183;-70
2023/08/13 06:51:12;;;;;;;4.93;1.70;;;15.00;99.90;;;;;;4995723;28;20171;-69
2023/08/13 06:53:40;;;;;;;4.03;1.77;;;15.00;99.90;;;;;;4977880;28;20190;-68
2023/08/13 06:56:08;;;;;;;8.37;1.97;;;15.00;99.90;;;;;;4995695;28;20224;-72
2023/08/13 06:58:36;;;;;;;6.80;1.70;;;15.00;99.90;;;;;;4995639;28;20183;-70
2023/08/13 07:01:05;;;;;;;4.70;1.70;;;15.00;99.90;;;;;;4995168;28;20185;-69
2023/08/13 07:03:32;;;;;;;5.90;1.97;;;15.00;99.90;;;;;;4995383;28;20580;-68
2023/08/13 07:06:00;;;;;;;6.33;1.90;;;15.00;99.90;;;;;;4977933;28;20193;-70
2023/08/13 07:08:28;;;;;;;6.73;1.90;;;15.00;99.90;;;;;;4995498;28;20625;-68
2023/08/13 07:10:56;;;;;;;7.07;1.70;;;15.00;99.90;;;;;;4977470;28;20201;-70
2023/08/13 07:13:23;;;;;;;3.30;1.63;;;15.00;99.90;;;;;;4995389;28;20178;-70
2023/08/13 07:15:51;;;;;;;7.27;1.97;;;15.10;99.90;;;;;;4995117;28;20245;-71
2023/08/13 07:18:19;;;;;;;8.63;1.83;;;14.90;99.90;;;;;;4995200;28;20645;-69
2023/08/13 07:20:47;;;;;;;11.47;2.27;;;14.90;99.90;;;;;;4994758;28;20185;-68
2023/08/13 07:23:15;;;;;;;5.43;1.93;;;14.80;99.90;;;;;;4994798;28;20264;-70
2023/08/13 07:25:42;;;;;;;9.23;1.80;;;14.90;99.90;;;;;;4994922;28;20702;-68
2023/08/13 07:28:10;;;;;;;8.13;2.30;;;14.80;99.90;;;;;;4994405;28;20741;-69
2023/08/13 07:30:38;;;;;;;8.50;1.83;;;14.70;99.90;;;;;;4994963;28;20178;-69
2023/08/13 07:33:06;;;;;;;9.27;2.20;;;14.70;99.90;;;;;;4994819;28;20217;-69
2023/08/13 07:35:34;;;;;;;10.67;3.10;;;14.70;99.90;;;;;;4994890;28;20213;-69
2023/08/13 07:38:02;;;;;;;8.73;2.10;;;14.70;99.90;;;;;;4994673;28;20257;-69
2023/08/13 07:40:30;;;;;;;10.60;2.20;;;14.70;99.90;;;;;;4993273;28;20186;-69
2023/08/13 07:43:02;;;;;;;5.97;1.70;;;14.60;99.90;;;;;;4994387;28;20221;-69
2023/08/13 07:45:30;;;;;;;4.67;1.90;;;14.50;99.90;;;;;;4994642;28;20289;-70
2023/08/13 07:47:57;;;;;;;6.80;2.27;;;14.50;99.90;;;;;;4994372;28;20215;-69
2023/08/13 07:50:25;;;;;;;5.67;1.90;;;14.50;99.90;;;;;;4994565;28;20205;-69
2023/08/13 07:52:53;;;;;;;7.43;1.73;;;14.50;99.90;;;;;;4994478;28;20224;-68
2023/08/13 07:55:21;;;;;;;9.63;2.90;;;14.50;99.90;;;;;;4993613;28;20256;-68
2023/08/13 07:57:48;;;;;;;8.43;1.90;;;14.40;99.90;;;;;;4994316;28;20193;-69
2023/08/13 08:00:16;;;;;;;8.13;2.67;;;14.50;99.90;;;;;;4994170;28;20175;-68
2023/08/13 08:02:43;;;;;;;10.87;2.50;;;14.50;99.90;;;;;;4994324;28;20214;-68
2023/08/13 08:05:12;;;;;;;7.47;2.73;;;14.50;99.90;;;;;;4994378;28;20177;-68
2023/08/13 08:07:39;;;;;;;9.50;2.80;;;14.40;99.90;;;;;;4993901;28;20190;-68
2023/08/13 08:10:07;;;;;;;10.03;2.97;;;14.40;99.90;;;;;;4994061;28;20174;-68
2023/08/13 08:12:35;;;;;;;8.83;2.60;;;14.40;99.90;;;;;;4994312;28;20218;-68
2023/08/13 08:15:03;;;;;;;9.70;2.50;;;14.40;99.90;;;;;;4994311;28;20179;-69
2023/08/13 08:17:31;;;;;;;12.37;2.87;;;14.30;99.90;;;;;;4994051;28;20178;-69
2023/08/13 08:19:59;;;;;;;10.20;2.33;;;14.30;99.90;;;;;;4993490;28;20180;-70
2023/08/13 08:22:27;;;;;;;7.30;1.83;;;14.30;99.90;;;;;;4993823;28;20239;-68
2023/08/13 08:24:55;;;;;;;7.40;1.70;;;14.30;99.90;;;;;;4994208;28;20196;-70
2023/08/13 08:27:23;;;;;;;9.27;2.40;;;14.30;99.90;;;;;;4994072;28;20186;-71
2023/08/13 08:29:50;;;;;;;6.93;1.87;;;14.30;99.90;;;;;;4993547;28;20198;-69
2023/08/13 08:32:17;;;;;;;7.87;1.90;;;14.30;99.90;;;;;;4993987;28;20185;-69
2023/08/13 08:34:45;;;;;;;8.77;2.43;;;14.20;99.90;;;;;;4993527;28;20209;-69
2023/08/13 08:37:13;;;;;;;11.27;2.17;;;14.20;99.90;;;;;;4994054;28;20186;-69
2023/08/13 08:39:41;;;;;;;5.17;1.80;;;14.20;99.90;;;;;;4975945;28;20186;-69
2023/08/13 08:42:11;;;;;;;7.47;2.03;;;14.20;99.90;;;;;;4978823;28;20448;-69
2023/08/13 08:44:43;;;;;;;11.10;2.30;;;14.30;99.90;;;;;;4985816;28;20193;-69
2023/08/13 08:47:10;;;;;;;9.30;2.33;;;14.20;99.90;;;;;;4974426;28;20199;-69
2023/08/13 08:49:38;;;;;;;7.70;1.97;;;14.10;99.90;;;;;;4991561;28;20297;-69
2023/08/13 08:52:07;;;;;;;4.67;2.03;;;14.10;99.90;;;;;;4991534;28;20261;-68
2023/08/13 08:54:40;;;;;;;7.13;2.00;;;14.10;99.90;;;;;;4992055;28;20175;-71
2023/08/13 08:57:07;;;;;;;8.40;2.57;;;14.10;99.90;;;;;;4991946;28;20186;-70
2023/08/13 08:59:36;;;;;;;9.40;1.80;;;14.10;99.90;;;;;;4974640;28;20217;-71
2023/08/13 09:02:08;;;;;;;7.43;1.77;;;14.10;99.90;;;;;;4992198;28;20205;-68
2023/08/13 09:04:35;;;;;;;6.13;2.20;;;14.10;99.90;;;;;;4992157;28;20183;-69
2023/08/13 09:07:04;;;;;;;4.13;1.83;;;14.10;99.90;;;;;;4992815;28;20674;-71
2023/08/13 09:09:32;;;;;;;9.43;2.00;;;14.00;99.90;;;;;;4974652;28;20236;-68
2023/08/13 09:12:00;;;;;;;9.90;2.77;;;14.00;99.90;;;;;;4991551;28;20193;-69
2023/08/13 09:14:28;;;;;;;8.77;1.87;;;14.00;99.90;;;;;;4992059;28;20201;-70
2023/08/13 09:16:57;;;;;;;6.80;1.87;;;14.00;99.90;;;;;;4992248;28;20182;-71
2023/08/13 09:19:27;;;;;;;6.80;2.30;;;14.00;99.90;;;;;;4991402;28;20190;-70
2023/08/13 09:22:00;;;;;;;9.10;1.90;;;14.00;99.90;;;;;;4991558;28;20563;-68
2023/08/13 09:24:37;;;;;;;6.97;2.23;;;14.00;99.90;;;;;;4992113;28;20167;-69
2023/08/13 09:27:07;;;;;;;8.07;2.10;;;14.00;99.90;;;;;;4991809;28;20192;-68
2023/08/13 09:29:38;;;;;;;7.80;2.47;;;14.00;99.90;;;;;;4955525;28;20273;-69
2023/08/13 09:32:05;;;;;;;9.60;2.33;;;14.00;99.90;;;;;;4992063;28;20190;-69
2023/08/13 09:34:34;;;;;;;12.40;3.07;;;14.00;99.90;;;;;;4991456;28;20170;-71
2023/08/13 09:37:01;;;;;;;9.00;2.20;;;14.00;99.90;;;;;;4991684;28;20273;-69
2023/08/13 09:39:31;;;;;;;7.17;2.50;;;14.00;99.90;;;;;;4991583;28;20170;-68
2023/08/13 09:42:00;;;;;;;7.40;2.13;;;13.90;99.90;;;;;;4990639;28;20226;-68
2023/08/13 09:44:29;;;;;;;5.53;2.00;;;14.00;99.90;;;;;;4991784;28;20185;-69
2023/08/13 09:47:01;;;;;;;13.20;2.30;;;14.00;99.90;;;;;;4991569;28;20198;-68
2023/08/13 09:49:31;;;;;;;10.60;2.47;;;14.00;99.90;;;;;;4991097;28;20268;-68
2023/08/13 09:52:08;;;;;;;6.03;2.40;;;14.00;99.90;;;;;;4993323;28;20684;-69
2023/08/13 09:54:51;;;;;;;6.73;2.17;;;14.00;99.90;;;;;;4992638;28;20189;-70
2023/08/13 09:57:20;;;;;;;18.37;2.27;;;14.00;99.90;;;;;;4992790;28;20189;-69
2023/08/13 09:59:49;;;;;;;8.60;2.10;;;13.90;99.90;;;;;;4992298;28;20545;-68
2023/08/13 10:02:21;;;;;;;6.37;2.40;;;13.90;99.90;;;;;;4992725;28;20210;-69
2023/08/13 10:04:48;;;;;;;9.90;2.07;;;13.90;99.90;;;;;;4993915;28;20273;-69
2023/08/13 10:07:20;;;;;;;8.67;2.30;;;14.00;99.90;;;;;;4996829;28;20181;-70
2023/08/13 10:09:47;;;;;;;5.47;2.17;;;13.90;99.90;;;;;;4995827;28;20658;-70
2023/08/13 10:12:15;;;;;;;9.90;2.77;;;13.90;99.90;;;;;;4995911;28;20182;-68
2023/08/13 10:14:42;;;;;;;8.33;2.40;;;14.00;99.90;;;;;;4996085;28;20190;-68
2023/08/13 10:17:14;;;;;;;10.53;2.30;;;13.90;99.90;;;;;;4996435;28;20670;-67
2023/08/13 10:19:50;;;;;;;5.70;2.00;;;13.90;99.90;;;;;;4994332;28;20613;-68
2023/08/13 10:22:39;;;;;;;9.00;1.97;;;13.90;99.90;;;;;;4996109;28;20238;-67
2023/08/13 10:25:08;;;;;;;4.70;2.00;;;13.80;99.90;;;;;;4995628;28;20261;-68
2023/08/13 10:27:44;;;;;;;7.57;2.17;;;13.90;99.90;;;;;;4995250;28;20642;-67
2023/08/13 10:30:13;;;;;;;6.80;1.90;;;13.90;99.90;;;;;;4995766;28;20198;-68
2023/08/13 10:32:59;;;;;;;5.07;1.80;;;13.80;99.90;;;;;;4995820;28;20248;-69
2023/08/13 10:35:39;;;;;;;7.83;2.37;;;13.80;99.90;;;;;;4996012;28;20182;-67
2023/08/13 10:38:10;;;;;;;7.77;1.70;;;13.80;99.90;;;;;;4995532;28;20173;-68
2023/08/13 10:40:56;;;;;;;5.67;2.10;;;13.80;99.90;;;;;;4995586;28;20186;-68
2023/08/13 10:43:24;;;;;;;8.80;2.00;;;13.80;99.90;;;;;;4995947;28;20301;-67
2023/08/13 10:45:51;;;;;;;7.20;2.23;;;13.70;99.90;;;;;;4995927;28;20182;-68
2023/08/13 10:48:29;;;;;;;6.33;2.00;;;13.70;99.90;;;;;;4995848;28;20229;-67
2023/08/13 10:50:58;;;;;;;8.80;1.87;;;13.80;99.90;;;;;;4995575;28;20214;-66
2023/08/13 10:53:27;;;;;;;6.93;2.37;;;13.70;99.90;;;;;;4995574;28;20191;-67
2023/08/13 10:55:59;;;;;;;4.30;1.67;;;13.70;99.90;;;;;;4995393;28;20225;-67
2023/08/13 10:58:32;;;;;;;6.60;1.80;;;13.70;99.90;;;;;;4995468;28;20193;-66
2023/08/13 11:01:10;;;;;;;10.63;2.33;;;13.70;99.90;;;;;;4995085;28;20197;-67
2023/08/13 11:03:55;;;;;;;6.97;3.00;;;13.70;99.90;;;;;;4976030;28;20231;-66
2023/08/13 11:06:27;;;;;;;12.37;5.40;;;13.70;99.90;;;;;;4975691;28;20179;-67
2023/08/13 11:08:55;;;;;;;19.10;11.63;;;13.80;99.90;;;;;;4975789;28;20206;-66
2023/08/13 11:11:23;;;;;;;24.87;17.07;;;13.80;99.90;;;;;;4992250;28;20177;-66
2023/08/13 11:13:51;;;;;;;23.77;16.37;;;13.80;99.90;;;;;;4995546;28;20174;-66
2023/08/13 11:16:18;;;;;;;28.70;18.97;;;13.80;99.90;;;;;;4995041;28;20180;-66
2023/08/13 11:18:46;;;;;;;27.03;18.17;;;13.80;99.90;;;;;;4995245;28;20273;-66
2023/08/13 11:21:14;;;;;;;22.73;15.70;;;13.70;99.90;;;;;;4994591;28;20227;-66
2023/08/13 11:23:44;;;;;;;21.83;12.17;;;13.80;99.90;;;;;;4994896;28;20253;-67
2023/08/13 11:26:11;;;;;;;16.00;9.20;;;13.80;99.90;;;;;;4994757;28;20241;-67
2023/08/13 11:28:41;;;;;;;10.20;6.20;;;13.80;99.90;;;;;;4994452;28;20278;-66
2023/08/13 11:31:09;;;;;;;17.70;6.33;;;13.80;99.90;;;;;;4994593;28;20231;-66
2023/08/13 11:33:36;;;;;;;11.23;5.70;;;13.80;99.90;;;;;;4994738;28;20237;-67
2023/08/13 11:36:05;;;;;;;7.37;4.13;;;13.80;99.90;;;;;;4993816;28;20193;-67
2023/08/13 11:38:33;;;;;;;15.40;4.50;;;13.70;99.90;;;;;;4992756;28;20190;-69
2023/08/13 11:41:10;;;;;;;15.87;5.20;;;13.80;99.90;;;;;;4993226;28;20198;-67
2023/08/13 11:43:38;;;;;;;8.70;2.80;;;13.70;99.90;;;;;;4994236;28;20226;-66
2023/08/13 11:46:05;;;;;;;5.93;2.43;;;13.70;99.90;;;;;;4994561;28;20218;-65
2023/08/13 11:48:36;;;;;;;9.60;2.67;;;13.60;99.90;;;;;;4994354;28;20594;-66
2023/08/13 11:51:14;;;;;;;7.17;3.20;;;13.60;99.90;;;;;;4993941;28;20682;-65
2023/08/13 11:53:46;;;;;;;11.30;2.80;;;13.60;99.90;;;;;;4994190;28;20206;-67
2023/08/13 11:56:18;;;;;;;8.23;2.60;;;13.60;99.90;;;;;;4994596;28;20178;-66
2023/08/13 11:58:46;;;;;;;5.87;1.90;;;13.60;99.90;;;;;;4994550;28;20182;-66
2023/08/13 12:01:15;;;;;;;6.53;2.40;;;13.50;99.90;;;;;;4993742;28;20188;-67
2023/08/13 12:03:44;;;;;;;9.53;2.33;;;13.50;99.90;;;;;;4994311;28;20612;-67
2023/08/13 12:06:13;;;;;;;6.83;2.07;;;13.50;99.90;;;;;;4976566;28;20182;-67
2023/08/13 12:08:49;;;;;;;5.13;2.27;;;13.40;99.90;;;;;;4992848;28;20190;-67
2023/08/13 12:11:17;;;;;;;7.20;2.60;;;13.40;99.90;;;;;;4993954;28;20185;-67
2023/08/13 12:13:45;;;;;;;10.23;3.00;;;13.40;99.90;;;;;;4976442;28;20209;-67
2023/08/13 12:16:13;;;;;;;7.67;2.37;;;13.40;99.90;;;;;;4994176;28;20271;-68
2023/08/13 12:18:40;;;;;;;8.13;2.53;;;13.40;99.90;;;;;;4993124;28;20266;-68
2023/08/13 12:21:08;;;;;;;9.33;2.33;;;13.30;99.90;;;;;;4993093;28;20319;-68
2023/08/13 12:23:36;;;;;;;8.50;2.50;;;13.30;99.90;;;;;;4993827;28;20253;-69
2023/08/13 12:26:04;;;;;;;11.60;3.03;;;13.30;99.90;;;;;;4993949;28;20183;-68
2023/08/13 12:28:32;;;;;;;12.43;2.63;;;13.20;99.90;;;;;;4993080;28;20194;-68
2023/08/13 12:31:00;;;;;;;8.47;2.80;;;13.10;99.90;;;;;;4976228;28;20710;-68
2023/08/13 12:33:28;;;;;;;8.27;2.70;;;13.10;99.90;;;;;;4976220;28;20184;-69
2023/08/13 12:35:56;;;;;;;8.47;3.73;;;13.10;99.90;;;;;;4993676;28;20182;-68
2023/08/13 12:38:27;;;;;;;8.37;4.60;;;13.10;99.90;;;;;;4993426;28;20185;-68
2023/08/13 12:40:54;;;;;;;11.80;5.17;;;13.10;99.90;;;;;;4993643;28;20650;-69
2023/08/13 12:43:22;;;;;;;11.80;5.10;;;13.10;99.90;;;;;;4976236;28;20360;-68
2023/08/13 12:45:50;;;;;;;9.37;5.07;;;13.00;99.90;;;;;;4993435;28;20221;-68
2023/08/13 12:48:18;;;;;;;10.20;5.00;;;13.00;99.90;;;;;;4976070;28;20650;-67
2023/08/13 12:50:46;;;;;;;10.27;5.00;;;12.90;99.90;;;;;;4972857;28;20186;-67
2023/08/13 12:53:13;;;;;;;9.67;4.97;;;12.90;99.90;;;;;;4974132;28;20189;-66